KLBE/LBE METAR and TAF weather

Enter ICAO airport designator
Station Type Date Time Source
KLBE METAR 2020/08/12 17:47 UTC NOAA

KLBE 121747Z 00000KT 20SM SCT050 BKN090 30/18 A3008


Station Type Date Time Source
KLBE Decoded METAR 2020/08/12 17:47 UTC NOAA

Latrobe / Westmorland, PA, United States (KLBE) 40-17N 079-24W
Aug 12, 2020 - 01:47 PM EDT / 2020.08.12 1747 UTC
Wind: Calm:0
Visibility: 20 mile(s):0
Sky conditions: mostly cloudy
Temperature: 86 F (30 C)
Dew Point: 64 F (18 C)
Relative Humidity: 48%
Pressure (altimeter): 30.08 in. Hg (1018 hPa)
ob: KLBE 121747Z 00000KT 20SM SCT050 BKN090 30/18 A3008
cycle: 18

Station Type Date Time Source
KLBE TAF 2020/08/12 18:22 UTC NOAA

TAF KLBE 121720Z 1218/1318 VRB03KT P6SM SCT050
FM130700 08003KT P6SM SCT060
FM131400 11003KT P6SM BKN040

Example: see airport list